Time;durP1;ratioP1;P1;durP2;ratioP2;P2;SDS_P1;SDS_P2;PMS_P1;PMS_P2;Temp;Humidity;BMP_temperature;BMP_pressure;BME280_temperature;BME280_humidity;BME280_pressure;Samples;Min_cycle;Max_cycle;Signal;HPM_P1;HPM_P2
2021/12/05 00:23:30;;;;;;;17.20;11.43;;;;;;;-145.42;46.81;46158.38;4940100;28;20042;-41
2021/12/05 00:25:58;;;;;;;22.00;12.52;;;;;;;-145.42;46.75;46214.44;4941572;28;20472;-40
2021/12/05 00:33:58;;;;;;;21.42;10.48;;;;;;;-145.42;46.78;46212.50;4940631;28;20491;-41
2021/12/05 01:07:19;;;;;;;16.55;9.15;;;;;;;-145.42;46.86;46212.50;4940208;28;20701;-42
2021/12/05 01:12:41;;;;;;;13.65;9.35;;;;;;;-145.42;46.63;46218.31;4941171;28;20047;-41
2021/12/05 01:15:10;;;;;;;15.52;8.93;;;;;;;-145.42;46.88;46224.09;4939740;28;20121;-35
2021/12/05 01:17:51;;;;;;;14.80;8.95;;;;;;;-145.42;46.70;46193.19;4938921;28;20046;-37
2021/12/05 01:20:18;;;;;;;14.68;8.98;;;;;;;-145.42;46.87;46202.84;4939604;28;20836;-39
2021/12/05 01:22:52;;;;;;;16.65;8.90;;;;;;;-145.42;46.68;46218.31;4939424;28;20048;-38
2021/12/05 01:25:40;;;;;;;13.70;8.63;;;;;;;-145.42;46.78;46200.91;4939847;28;20075;-40
2021/12/05 01:28:39;;;;;;;12.45;8.35;;;;;;;-145.42;46.95;46237.66;4937605;28;20035;-40
2021/12/05 01:31:18;;;;;;;14.27;8.73;;;;;;;-145.42;46.83;46210.56;4941319;28;20348;-38
2021/12/05 01:36:39;;;;;;;15.57;8.73;;;;;;;-145.42;46.63;46218.31;4938602;28;20043;-40
2021/12/05 01:47:25;;;;;;;11.68;8.07;;;;;;;-145.42;46.87;46268.56;4939069;28;20425;-36
2021/12/05 01:52:49;;;;;;;13.45;8.88;;;;;;;-145.42;46.64;46191.25;4939633;28;20043;-37
2021/12/05 02:07:55;;;;;;;13.65;8.32;;;;;;;-145.42;46.89;46181.56;4940903;28;20514;-39
2021/12/05 02:12:18;;;;;;;12.15;7.57;;;;;;;-145.42;46.73;46195.09;4940192;28;20129;-39
2021/12/05 02:34:15;;;;;;;10.93;7.38;;;;;;;-145.42;46.79;46158.38;4943606;28;20042;-40
2021/12/05 02:36:58;;;;;;;9.05;6.95;;;;;;;-145.42;46.90;46202.84;4942399;28;20043;-38
2021/12/05 02:39:48;;;;;;;10.55;7.00;;;;;;;-145.42;46.87;46179.66;4941605;28;20050;-39
2021/12/05 02:42:25;;;;;;;9.38;6.95;;;;;;;-145.42;46.87;46164.19;4942834;28;20051;-38
2021/12/05 02:44:51;;;;;;;11.10;7.13;;;;;;;-145.42;46.71;46206.72;4941776;28;20075;-39
2021/12/05 02:47:20;;;;;;;11.40;7.65;;;;;;;-145.42;46.71;46226.03;4943207;28;20134;-39
2021/12/05 02:49:48;;;;;;;9.52;6.90;;;;;;;-145.42;46.75;46197.03;4941008;28;20043;-37
2021/12/05 02:52:23;;;;;;;9.43;6.60;;;;;;;-145.42;46.92;46202.84;4942948;28;20040;-37
2021/12/05 02:54:52;;;;;;;11.43;7.10;;;;;;;-145.42;46.87;46235.72;4942050;28;20866;-37
2021/12/05 02:57:29;;;;;;;9.57;6.80;;;;;;;-145.42;46.88;46202.84;4944921;28;20154;-38
2021/12/05 02:59:57;;;;;;;10.10;6.63;;;;;;;-145.42;46.60;46210.56;4942577;28;22962;-34
2021/12/05 03:02:38;;;;;;;11.50;6.22;;;;;;;-145.42;46.59;46204.78;4943029;28;20043;-37
2021/12/05 03:05:09;;;;;;;15.38;7.95;;;;;;;-145.42;46.73;46237.66;4943008;28;20122;-38
2021/12/05 03:07:39;;;;;;;9.93;7.00;;;;;;;-145.42;46.69;46227.97;4941291;28;20040;-35
2021/12/05 03:10:06;;;;;;;9.40;6.70;;;;;;;-145.42;46.82;46237.66;4942739;28;20059;-38
2021/12/05 03:12:34;;;;;;;9.18;6.32;;;;;;;-145.42;46.71;46198.97;4942098;28;20134;-38
2021/12/05 03:15:04;;;;;;;9.30;6.03;;;;;;;-145.42;46.64;46208.66;4942591;28;20523;-40
2021/12/05 03:17:30;;;;;;;11.30;6.50;;;;;;;-145.42;46.66;46210.56;4942040;28;20047;-34
2021/12/05 03:19:56;;;;;;;8.85;6.05;;;;;;;-145.42;46.82;46218.31;4941621;28;20451;-40
2021/12/05 03:22:22;;;;;;;9.82;6.78;;;;;;;-145.42;46.71;46226.03;4942331;28;20501;-39
2021/12/05 03:24:48;;;;;;;7.65;6.03;;;;;;;-145.42;46.65;46224.09;4940609;28;20479;-40
2021/12/05 03:27:14;;;;;;;7.85;5.78;;;;;;;-145.42;46.61;46202.84;4942501;28;20032;-36
2021/12/05 03:29:40;;;;;;;8.65;6.88;;;;;;;-145.42;46.68;46220.25;4940827;28;20122;-40
2021/12/05 03:32:06;;;;;;;8.70;6.47;;;;;;;-145.42;46.85;46200.91;4943549;28;20070;-38
2021/12/05 03:34:33;;;;;;;7.57;5.72;;;;;;;-145.42;46.59;46214.44;4941296;28;20479;-39
2021/12/05 03:36:59;;;;;;;8.90;5.80;;;;;;;-145.42;46.77;46210.56;4942936;28;20051;-36
2021/12/05 03:39:27;;;;;;;8.98;6.00;;;;;;;-145.42;46.67;46231.84;4941025;28;21088;-36
2021/12/05 03:41:54;;;;;;;9.23;5.90;;;;;;;-145.42;46.60;46191.25;4941836;28;20126;-40
2021/12/05 03:44:23;;;;;;;9.43;6.03;;;;;;;-145.42;46.61;46202.84;4943029;28;20567;-39
2021/12/05 03:46:50;;;;;;;7.88;5.55;;;;;;;-145.42;46.65;46214.44;4942388;28;20052;-43
2021/12/05 03:49:16;;;;;;;9.27;5.90;;;;;;;-145.42;46.73;46231.84;4943036;28;20074;-37
2021/12/05 03:51:56;;;;;;;9.98;6.55;;;;;;;-145.42;46.63;46198.97;4941383;28;20554;-40
2021/12/05 03:54:22;;;;;;;7.32;5.55;;;;;;;-145.42;46.55;46214.44;4942456;28;20479;-39
2021/12/05 03:56:49;;;;;;;6.82;5.63;;;;;;;-145.42;46.82;46212.50;4940778;28;20044;-36
2021/12/05 03:59:15;;;;;;;7.32;5.95;;;;;;;-145.42;46.75;46202.84;4941457;28;20093;-37
2021/12/05 04:01:41;;;;;;;7.88;6.03;;;;;;;-145.42;46.82;46191.25;4939789;28;20044;-38
2021/12/05 04:04:08;;;;;;;7.88;5.80;;;;;;;-145.42;46.77;46206.72;4942100;28;20126;-40
2021/12/05 04:06:34;;;;;;;8.98;5.72;;;;;;;-145.42;46.71;46210.56;4940510;28;20409;-38
2021/12/05 04:09:06;;;;;;;7.90;6.05;;;;;;;-145.42;46.68;46202.84;4942980;28;20047;-39
2021/12/05 04:11:37;;;;;;;9.13;5.72;;;;;;;-145.42;46.67;46179.66;4940689;28;20098;-41
2021/12/05 04:14:07;;;;;;;6.45;4.95;;;;;;;-145.42;46.76;46214.44;4942042;28;20043;-40
2021/12/05 04:16:33;;;;;;;7.43;5.45;;;;;;;-145.42;46.82;46204.78;4939905;28;20537;-38
2021/12/05 04:19:00;;;;;;;8.68;5.50;;;;;;;-145.42;46.65;46187.38;4942322;28;20035;-40
2021/12/05 04:21:26;;;;;;;7.28;5.53;;;;;;;-145.42;46.60;46177.72;4940353;28;20410;-38
2021/12/05 04:23:52;;;;;;;6.07;5.35;;;;;;;-145.42;46.68;46197.03;4941188;28;20131;-39
2021/12/05 04:26:18;;;;;;;7.95;5.80;;;;;;;-145.42;46.64;46198.97;4941022;28;20170;-37
2021/12/05 04:28:46;;;;;;;8.40;5.90;;;;;;;-145.42;46.67;46185.44;4939872;28;20032;-42
2021/12/05 04:31:12;;;;;;;6.40;5.18;;;;;;;-145.42;46.65;46229.91;4941388;28;20090;-39
2021/12/05 04:33:39;;;;;;;6.70;5.20;;;;;;;-145.42;46.69;46208.66;4940451;28;20458;-40
2021/12/05 04:36:07;;;;;;;7.97;5.25;;;;;;;-145.42;46.56;46202.84;4941502;28;20490;-40
2021/12/05 04:38:33;;;;;;;8.25;5.75;;;;;;;-145.42;46.74;46198.97;4940255;28;20530;-33
2021/12/05 04:40:59;;;;;;;6.75;5.03;;;;;;;-145.42;46.69;46216.38;4940153;28;20444;-38
2021/12/05 04:43:25;;;;;;;6.95;4.88;;;;;;;-145.42;46.59;46197.03;4939709;28;20114;-36
2021/12/05 04:45:51;;;;;;;6.82;5.25;;;;;;;-145.42;46.64;46210.56;4938673;28;20099;-33
2021/12/05 04:48:17;;;;;;;7.60;5.45;;;;;;;-145.42;46.68;46193.19;4940278;28;20106;-41
2021/12/05 04:50:44;;;;;;;6.55;4.55;;;;;;;-145.42;46.64;46206.72;4939238;28;20521;-40
2021/12/05 04:53:10;;;;;;;6.80;5.22;;;;;;;-145.42;46.57;46247.31;4941195;28;20414;-39
2021/12/05 04:55:37;;;;;;;7.18;5.22;;;;;;;-145.42;46.68;46202.84;4938963;28;20134;-38
2021/12/05 04:58:05;;;;;;;7.05;4.93;;;;;;;-145.42;46.64;46220.25;4941932;28;20051;-34
2021/12/05 05:00:37;;;;;;;6.22;5.13;;;;;;;-145.42;46.64;46204.78;4939764;28;20039;-39
2021/12/05 05:03:04;;;;;;;6.95;5.00;;;;;;;-145.42;46.65;46202.84;4938919;28;20102;-39
2021/12/05 05:05:31;;;;;;;6.43;5.22;;;;;;;-145.42;46.58;46208.66;4939703;28;20534;-34
2021/12/05 05:07:57;;;;;;;8.05;5.30;;;;;;;-145.42;46.73;46216.38;4940326;28;20067;-29
2021/12/05 05:10:27;;;;;;;7.15;5.13;;;;;;;-145.42;46.56;46218.31;4940799;28;20522;-35
2021/12/05 05:12:54;;;;;;;6.55;5.03;;;;;;;-145.42;46.56;46231.84;4940356;28;20155;-39
2021/12/05 05:15:25;;;;;;;6.68;5.07;;;;;;;-145.42;46.66;46204.78;4940707;28;20146;-41
2021/12/05 05:17:53;;;;;;;7.20;5.07;;;;;;;-145.42;46.41;46210.56;4939763;28;20043;-39
2021/12/05 05:20:34;;;;;;;6.15;4.60;;;;;;;-145.42;46.52;46214.44;4940908;28;20399;-40
2021/12/05 05:30:40;;;;;;;5.90;4.72;;;;;;;-145.42;46.54;46210.56;4939969;28;20043;-38
2021/12/05 05:42:08;;;;;;;7.70;4.80;;;;;;;-145.42;46.54;46224.09;4939348;28;20121;-38
2021/12/05 05:47:26;;;;;;;6.30;5.07;;;;;;;-145.42;46.64;46226.03;4940185;28;20054;-38
2021/12/05 05:49:59;;;;;;;5.18;4.40;;;;;;;-145.42;46.47;46208.66;4939588;28;20049;-39
2021/12/05 05:52:26;;;;;;;6.15;4.78;;;;;;;-145.42;46.55;46208.66;4938087;28;20392;-40
2021/12/05 05:54:55;;;;;;;6.45;5.32;;;;;;;-145.42;46.50;46214.44;4939477;28;20040;-39
2021/12/05 05:59:58;;;;;;;7.57;4.78;;;;;;;-145.42;46.43;46220.25;4938796;28;20215;-38
2021/12/05 06:05:11;;;;;;;7.22;4.68;;;;;;;-145.42;46.38;46198.97;4941672;28;20047;-36
2021/12/05 06:07:42;;;;;;;5.15;4.45;;;;;;;-145.42;46.51;46179.66;4941750;28;20039;-33
2021/12/05 06:10:15;;;;;;;7.00;5.13;;;;;;;-145.42;46.44;46222.19;4940844;28;20051;-40
2021/12/05 06:12:41;;;;;;;5.53;4.65;;;;;;;-145.42;46.38;46216.38;4942751;28;20126;-34
2021/12/05 06:15:10;;;;;;;5.72;5.07;;;;;;;-145.42;46.36;46222.19;4943798;28;20068;-40
2021/12/05 06:17:36;;;;;;;6.00;4.68;;;;;;;-145.42;46.41;46181.56;4944060;28;20593;-40
2021/12/05 06:20:07;;;;;;;6.07;4.68;;;;;;;-145.42;46.35;46181.56;4944193;28;20142;-38
2021/12/05 06:22:33;;;;;;;5.40;4.35;;;;;;;-145.42;46.35;46206.72;4942991;28;20419;-40
2021/12/05 06:25:00;;;;;;;5.03;4.53;;;;;;;-145.42;46.21;46175.78;4943871;28;20036;-42
2021/12/05 06:27:26;;;;;;;6.97;4.50;;;;;;;-145.42;46.35;46239.56;4943290;28;20043;-32
2021/12/05 06:30:05;;;;;;;5.13;4.35;;;;;;;-145.42;46.39;46195.09;4942023;28;20066;-38
2021/12/05 06:39:05;;;;;;;5.38;4.07;;;;;;;-145.42;46.34;46226.03;4943010;28;20043;-39
2021/12/05 06:41:02;;;;;;;5.43;4.57;;;;;;;-145.42;46.34;46237.66;4944055;28;20047;-39
2021/12/05 06:46:41;;;;;;;5.68;4.43;;;;;;;-145.42;46.39;46208.66;4944577;28;20039;-34
2021/12/05 06:48:59;;;;;;;5.38;3.97;;;;;;;-145.42;46.41;46241.50;4940068;28;20103;-37
2021/12/05 06:51:28;;;;;;;4.93;4.40;;;;;;;-145.42;46.30;46220.25;4942786;28;20500;-38
2021/12/05 06:53:54;;;;;;;6.10;4.43;;;;;;;-145.42;46.52;46206.72;4940248;28;20119;-37
2021/12/05 06:56:22;;;;;;;5.70;4.55;;;;;;;-145.42;46.37;46241.50;4943008;28;20126;-37
2021/12/05 06:58:48;;;;;;;5.65;4.60;;;;;;;-145.42;46.51;46195.09;4943178;28;20139;-40
2021/12/05 07:01:15;;;;;;;6.18;4.57;;;;;;;-145.42;46.43;46204.78;4945313;28;20047;-38
2021/12/05 07:03:46;;;;;;;6.13;4.50;;;;;;;-145.42;46.54;46202.84;4945078;28;20495;-36
2021/12/05 07:06:24;;;;;;;7.40;4.72;;;;;;;-145.42;46.38;46204.78;4944647;28;20053;-37
2021/12/05 07:08:53;;;;;;;5.57;4.55;;;;;;;-145.42;46.46;46202.84;4945271;28;20031;-36
2021/12/05 07:11:27;;;;;;;5.55;4.28;;;;;;;-145.42;46.48;46200.91;4942687;28;20049;-39
2021/12/05 07:16:44;;;;;;;5.82;4.25;;;;;;;-145.42;46.61;46187.38;4944315;28;20443;-40
2021/12/05 07:21:53;;;;;;;6.85;4.55;;;;;;;-145.42;46.62;46218.31;4942364;28;19922;-37
2021/12/05 07:24:33;;;;;;;6.68;4.93;;;;;;;-145.42;46.85;46198.97;4943588;28;20414;-35
2021/12/05 07:40:30;;;;;;;6.90;4.55;;;;;;;-145.42;46.79;46231.84;4940253;28;20054;-39
2021/12/05 07:42:59;;;;;;;6.57;4.68;;;;;;;-145.42;46.82;46195.09;4943821;28;20048;-40
2021/12/05 07:45:35;;;;;;;6.38;5.40;;;;;;;-145.42;46.73;46193.19;4941772;28;20067;-35
2021/12/05 07:48:12;;;;;;;7.72;5.07;;;;;;;-145.42;46.85;46214.44;4943138;28;20046;-36
2021/12/05 07:51:04;;;;;;;5.97;4.57;;;;;;;-145.42;46.80;46237.66;4941733;28;20042;-34
2021/12/05 07:53:36;;;;;;;8.35;5.60;;;;;;;-145.42;47.01;46202.84;4943161;28;20074;-40
2021/12/05 07:56:13;;;;;;;8.20;5.07;;;;;;;-145.42;46.97;46229.91;4941795;28;20849;-33
2021/12/05 08:15:07;;;;;;;5.85;5.13;;;;;;;-145.42;46.36;46226.03;4940849;28;20534;-41
2021/12/05 08:17:33;;;;;;;7.97;5.88;;;;;;;-145.42;46.19;46210.56;4942587;28;20054;-41
2021/12/05 08:19:58;;;;;;;8.30;6.13;;;;;;;-145.42;46.24;46218.31;4942005;28;20392;-40
2021/12/05 08:22:24;;;;;;;8.63;5.60;;;;;;;-145.42;45.95;46191.25;4942190;28;20122;-41
2021/12/05 08:24:51;;;;;;;7.30;5.45;;;;;;;-145.42;46.25;46226.03;4941402;28;20486;-36
2021/12/05 08:27:17;;;;;;;8.68;5.85;;;;;;;-145.42;46.11;46164.19;4942336;28;20164;-37
2021/12/05 08:29:54;;;;;;;9.73;6.22;;;;;;;-145.42;46.16;46206.72;4940236;28;20051;-40
2021/12/05 08:35:01;;;;;;;9.18;5.85;;;;;;;-145.42;45.71;46266.63;4941320;28;20119;-36
2021/12/05 11:21:35;;;;;;;14.75;8.85;;;;;;;-145.42;45.85;46235.72;5029409;27;20441;-37
2021/12/05 11:24:16;;;;;;;13.07;9.32;;;;;;;-145.42;46.04;46227.97;5013232;28;20042;-38
2021/12/05 11:26:45;;;;;;;13.23;8.60;;;;;;;-145.42;46.21;46226.03;5014717;28;20072;-39
2021/12/05 11:29:12;;;;;;;16.00;9.07;;;;;;;-145.42;46.10;46235.72;5003259;28;20153;-41
2021/12/05 11:31:39;;;;;;;14.15;9.18;;;;;;;-145.42;45.97;46251.19;5001630;28;20040;-41
2021/12/05 11:34:05;;;;;;;11.73;8.48;;;;;;;-145.42;45.98;46241.50;5017592;28;20148;-40
2021/12/05 11:36:35;;;;;;;14.15;9.45;;;;;;;-145.42;45.80;46216.38;5021009;28;20128;-40
2021/12/05 11:39:21;;;;;;;11.48;8.20;;;;;;;-145.42;45.80;46224.09;5016865;28;20030;-40
2021/12/05 11:41:47;;;;;;;17.45;8.90;;;;;;;-145.42;45.81;46237.66;5010350;28;20568;-40
2021/12/05 11:44:20;;;;;;;17.67;9.65;;;;;;;-145.42;45.87;46251.19;5021968;28;20056;-37
2021/12/05 11:46:47;;;;;;;12.73;8.40;;;;;;;-145.42;45.58;46233.78;5011764;28;20663;-41
2021/12/05 11:49:22;;;;;;;13.10;9.05;;;;;;;-145.42;45.58;46235.72;5010957;28;20034;-37
2021/12/05 11:51:52;;;;;;;11.95;8.40;;;;;;;-145.42;45.61;46235.72;5008781;28;20516;-37
2021/12/05 11:54:18;;;;;;;10.63;8.35;;;;;;;-145.42;45.45;46239.56;5011917;28;20571;-38
2021/12/05 11:56:55;;;;;;;12.05;8.75;;;;;;;-145.42;45.44;46231.84;5009511;28;20065;-37
2021/12/05 11:59:49;;;;;;;12.73;8.57;;;;;;;-145.42;45.50;46255.03;5005381;28;20575;-37
2021/12/05 12:02:26;;;;;;;11.85;8.82;;;;;;;-145.42;45.45;46260.84;5001969;28;20395;-42
2021/12/05 12:05:00;;;;;;;12.77;7.70;;;;;;;-145.42;45.62;46214.44;5009127;28;20030;-36
2021/12/05 12:07:45;;;;;;;10.93;7.90;;;;;;;-145.42;45.54;46258.91;5004895;28;20053;-37
2021/12/05 12:10:19;;;;;;;10.70;7.95;;;;;;;-145.42;45.32;46280.19;4999957;28;20137;-40
2021/12/05 12:12:51;;;;;;;10.57;7.95;;;;;;;-145.42;45.24;46268.56;5009067;28;20125;-41
2021/12/05 12:15:17;;;;;;;9.77;7.88;;;;;;;-145.42;45.27;46260.84;5009103;28;20100;-38
2021/12/05 12:17:46;;;;;;;11.18;7.82;;;;;;;-145.42;45.32;46262.78;5009918;28;20068;-40
2021/12/05 12:20:16;;;;;;;14.60;8.32;;;;;;;-145.42;45.25;46229.91;5007387;28;20045;-41
2021/12/05 12:22:43;;;;;;;12.80;8.07;;;;;;;-145.42;45.09;46195.09;4999870;28;20046;-36
2021/12/05 12:25:17;;;;;;;9.88;7.63;;;;;;;-145.42;45.35;46226.03;5009162;28;20581;-39
2021/12/05 12:27:44;;;;;;;12.25;8.63;;;;;;;-145.42;45.25;46231.84;5012484;28;20455;-39
2021/12/05 12:30:12;;;;;;;10.73;7.65;;;;;;;-145.42;45.08;46245.38;5015115;28;20111;-41
2021/12/05 12:32:42;;;;;;;13.15;8.43;;;;;;;-145.42;45.16;46226.03;5006176;28;20046;-40
2021/12/05 12:35:12;;;;;;;12.70;7.75;;;;;;;-145.42;45.25;46231.84;5000040;28;20105;-38
2021/12/05 12:38:08;;;;;;;17.73;8.77;;;;;;;-145.42;44.99;46214.44;5006629;28;20121;-42
2021/12/05 12:40:40;;;;;;;9.23;7.93;;;;;;;-145.42;45.15;46235.72;5003958;28;20439;-38
2021/12/05 12:43:08;;;;;;;12.00;7.90;;;;;;;-145.42;45.03;46226.03;5001023;28;20799;-39
2021/12/05 12:45:40;;;;;;;10.57;8.05;;;;;;;-145.42;47.80;46239.56;5004964;28;20741;-38
2021/12/05 12:48:11;;;;;;;12.20;8.35;;;;;;;-145.42;45.07;46235.72;5002610;28;20037;-41
2021/12/05 12:50:51;;;;;;;10.35;7.63;;;;;;;-145.42;45.03;46231.84;5005796;28;20052;-41
2021/12/05 12:53:21;;;;;;;10.98;7.82;;;;;;;-145.42;44.81;46241.50;4999325;28;20038;-40
2021/12/05 12:56:04;;;;;;;10.05;7.60;;;;;;;-145.42;44.87;46264.72;5007453;28;20580;-41
2021/12/05 12:58:50;;;;;;;10.60;8.20;;;;;;;-145.42;44.74;46276.31;5007303;28;20484;-39
2021/12/05 13:01:50;;;;;;;10.73;7.72;;;;;;;-145.42;44.82;46218.31;5007083;28;20050;-39
2021/12/05 13:04:38;;;;;;;12.32;8.45;;;;;;;-145.42;44.76;46227.97;4996959;28;20181;-40
2021/12/05 13:10:08;;;;;;;11.02;7.60;;;;;;;-145.42;44.93;46241.50;5011360;28;20636;-39
2021/12/05 13:12:48;;;;;;;9.98;7.97;;;;;;;-145.42;44.89;46239.56;5003132;28;20053;-40
2021/12/05 13:15:35;;;;;;;12.77;7.70;;;;;;;-145.42;45.04;46245.38;4994084;28;20052;-38
2021/12/05 13:18:13;;;;;;;12.48;7.85;;;;;;;-145.42;45.11;46226.03;4992934;28;20545;-38
2021/12/05 13:20:51;;;;;;;10.35;7.15;;;;;;;-145.42;45.04;46237.66;4994328;28;20065;-39
2021/12/05 13:23:27;;;;;;;8.48;7.63;;;;;;;-145.42;45.20;46224.09;4996890;28;20046;-38
2021/12/05 13:26:19;;;;;;;9.88;7.60;;;;;;;-145.42;45.11;46231.84;4998264;28;20042;-37
2021/12/05 13:28:59;;;;;;;8.88;7.18;;;;;;;-145.42;45.08;46256.97;5003186;28;20042;-40
2021/12/05 13:31:28;;;;;;;10.85;7.38;;;;;;;-145.42;45.15;46239.56;5005250;28;20045;-40
2021/12/05 13:34:26;;;;;;;9.63;7.18;;;;;;;-145.42;45.30;46229.91;5008346;28;20462;-40
2021/12/05 13:37:10;;;;;;;9.82;6.78;;;;;;;-145.42;45.63;46256.97;5006511;28;20042;-40
2021/12/05 13:39:52;;;;;;;10.95;7.55;;;;;;;-145.42;45.40;46227.97;5007285;28;20041;-40
2021/12/05 13:42:42;;;;;;;10.23;7.30;;;;;;;-145.42;45.32;46243.44;4994773;28;20046;-44
2021/12/05 13:45:09;;;;;;;8.25;6.82;;;;;;;-145.42;45.29;46227.97;4996709;28;20597;-39
2021/12/05 13:47:41;;;;;;;10.63;6.85;;;;;;;-145.42;45.45;46233.78;4992786;28;20057;-43
2021/12/05 13:50:19;;;;;;;13.55;7.57;;;;;;;-145.42;45.45;46216.38;4995144;28;20041;-42
2021/12/05 13:52:52;;;;;;;10.52;7.38;;;;;;;-145.42;45.11;46239.56;4996283;28;20038;-42
2021/12/05 13:56:03;;;;;;;11.52;8.05;;;;;;;-145.42;45.08;46218.31;5004544;28;20029;-43
2021/12/05 13:58:35;;;;;;;12.20;8.32;;;;;;;-145.42;44.97;46198.97;5006699;28;20390;-41
2021/12/05 14:01:08;;;;;;;10.25;7.93;;;;;;;-145.42;44.72;46226.03;5000847;28;20141;-42
2021/12/05 14:04:08;;;;;;;9.88;7.65;;;;;;;-145.42;44.96;46227.97;5007171;28;20052;-38
2021/12/05 14:06:49;;;;;;;9.38;7.55;;;;;;;-145.42;44.82;46280.19;5006992;28;20056;-39
2021/12/05 14:09:25;;;;;;;10.32;7.70;;;;;;;-145.42;44.87;46202.84;5006942;28;20040;-41
2021/12/05 14:11:59;;;;;;;9.38;7.32;;;;;;;-145.42;44.70;46210.56;5003550;28;20037;-41
2021/12/05 14:14:31;;;;;;;12.10;8.15;;;;;;;-145.42;44.69;46208.66;5006400;28;20038;-38
2021/12/05 14:16:59;;;;;;;10.93;7.65;;;;;;;-145.42;44.63;46191.25;5005703;28;20038;-36
2021/12/05 14:19:29;;;;;;;12.18;8.00;;;;;;;-145.42;44.80;46227.97;5005435;28;20042;-36
2021/12/05 14:21:57;;;;;;;13.60;9.23;;;;;;;-145.42;44.87;46272.44;5007024;28;20052;-38
2021/12/05 14:24:26;;;;;;;14.88;8.90;;;;;;;-145.42;44.96;46227.97;5007760;28;20729;-39
2021/12/05 14:26:55;;;;;;;11.65;8.77;;;;;;;-145.42;44.73;46247.31;5006334;28;20205;-37
2021/12/05 14:29:25;;;;;;;11.70;8.70;;;;;;;-145.42;44.95;46251.19;5007169;28;20054;-40
2021/12/05 14:32:12;;;;;;;13.57;9.02;;;;;;;-145.42;44.79;46216.38;5004588;28;20480;-40
2021/12/05 14:34:39;;;;;;;13.23;9.30;;;;;;;-145.42;44.77;46239.56;5006491;28;20041;-40
2021/12/05 14:37:09;;;;;;;14.77;10.32;;;;;;;-145.42;44.84;46239.56;5005508;28;20041;-39
2021/12/05 14:39:41;;;;;;;14.73;9.25;;;;;;;-145.42;45.10;46231.84;5007360;28;20068;-41
2021/12/05 14:42:16;;;;;;;14.93;9.60;;;;;;;-145.42;45.36;46255.03;5003692;28;22841;-39
2021/12/05 14:44:44;;;;;;;19.10;10.45;;;;;;;-145.42;45.63;46231.84;5005824;28;20045;-40
2021/12/05 14:47:13;;;;;;;14.70;9.68;;;;;;;-145.42;45.96;46214.44;5006483;28;20460;-40
2021/12/05 14:49:43;;;;;;;16.40;9.98;;;;;;;-145.42;46.13;46227.97;5004473;28;20128;-39
2021/12/05 14:52:19;;;;;;;14.30;10.10;;;;;;;-145.42;46.33;46237.66;5004487;28;20045;-37
2021/12/05 14:54:46;;;;;;;13.20;9.48;;;;;;;-145.42;46.41;46241.50;5005664;28;20041;-40
2021/12/05 14:57:20;;;;;;;14.85;9.75;;;;;;;-145.42;46.60;46245.38;5004340;28;20121;-40
2021/12/05 14:59:48;;;;;;;19.27;11.57;;;;;;;-145.42;46.77;46214.44;4989144;28;20134;-39
2021/12/05 15:02:15;;;;;;;15.27;10.70;;;;;;;-145.42;46.79;46231.84;4997626;28;20448;-39
2021/12/05 15:04:45;;;;;;;18.50;10.13;;;;;;;-145.42;46.87;46243.44;5001240;28;20037;-41
2021/12/05 15:07:11;;;;;;;14.23;10.15;;;;;;;-145.42;46.92;46206.72;5000265;28;20117;-39
2021/12/05 15:09:44;;;;;;;14.95;10.82;;;;;;;-145.42;47.03;46231.84;4993438;28;20677;-40
2021/12/05 15:12:18;;;;;;;17.50;12.35;;;;;;;-145.42;47.17;46262.78;4992138;28;20050;-39
2021/12/05 15:14:46;;;;;;;20.08;12.50;;;;;;;-145.42;47.13;46224.09;4992607;28;20034;-40
2021/12/05 15:17:16;;;;;;;14.98;11.40;;;;;;;-145.42;47.11;46212.50;5000964;28;20122;-39
2021/12/05 15:19:51;;;;;;;18.23;12.63;;;;;;;-145.42;47.25;46253.09;4984344;28;20764;-39
2021/12/05 15:22:17;;;;;;;14.35;11.63;;;;;;;-145.42;47.22;46218.31;4992404;28;20047;-39
2021/12/05 15:24:52;;;;;;;21.60;12.02;;;;;;;-145.42;47.26;46227.97;4985130;28;20046;-39
2021/12/05 15:27:19;;;;;;;16.88;11.48;;;;;;;-145.42;47.31;46276.31;4996647;28;20046;-38
2021/12/05 15:29:55;;;;;;;15.45;11.65;;;;;;;-145.42;47.37;46226.03;5000838;28;20590;-40
2021/12/05 15:32:24;;;;;;;15.10;10.10;;;;;;;-145.42;47.39;46237.66;4993737;28;20117;-40
2021/12/05 15:34:53;;;;;;;14.52;10.98;;;;;;;-145.42;47.29;46268.56;4985291;28;20049;-40
2021/12/05 15:37:19;;;;;;;15.43;10.60;;;;;;;-145.42;47.47;46224.09;4986383;28;20053;-39
2021/12/05 15:39:48;;;;;;;13.98;10.70;;;;;;;-145.42;47.56;46235.72;4994020;28;20117;-39
2021/12/05 15:42:21;;;;;;;15.07;11.00;;;;;;;-145.42;47.59;46227.97;4998476;28;20062;-37
2021/12/05 15:44:50;;;;;;;13.88;10.90;;;;;;;-145.42;47.58;46233.78;4996008;28;20489;-38
2021/12/05 15:47:20;;;;;;;14.15;10.90;;;;;;;-145.42;47.73;46243.44;4995522;28;20042;-40
2021/12/05 15:49:46;;;;;;;15.23;10.27;;;;;;;-145.42;47.68;46233.78;5006527;28;20045;-40
2021/12/05 15:52:12;;;;;;;14.40;10.60;;;;;;;-145.42;47.85;46249.25;5001019;28;20417;-39
2021/12/05 15:54:41;;;;;;;18.02;10.50;;;;;;;-145.42;47.87;46243.44;4996663;28;20069;-40
2021/12/05 15:57:22;;;;;;;15.77;11.00;;;;;;;-145.42;48.05;46253.09;4996248;28;20685;-40
2021/12/05 15:59:48;;;;;;;12.75;10.43;;;;;;;-145.42;48.01;46243.44;4997304;28;20069;-39
2021/12/05 16:02:19;;;;;;;16.15;11.10;;;;;;;-145.42;48.17;46239.56;4994289;28;20038;-39
2021/12/05 16:04:46;;;;;;;15.68;11.43;;;;;;;-145.42;48.18;46229.91;4994369;28;20042;-39
2021/12/05 16:07:13;;;;;;;14.68;10.85;;;;;;;-145.42;48.18;46243.44;4996646;28;20122;-40
2021/12/05 16:09:42;;;;;;;17.15;10.25;;;;;;;-145.42;48.11;46214.44;5002706;28;20030;-38
2021/12/05 16:12:13;;;;;;;16.73;10.68;;;;;;;-145.42;48.22;46239.56;4993649;28;20053;-44
2021/12/05 16:14:44;;;;;;;15.10;10.50;;;;;;;-145.42;47.96;46239.56;5002547;28;20066;-45
2021/12/05 16:17:27;;;;;;;16.38;10.13;;;;;;;-145.42;47.73;46241.50;5000447;28;20104;-41
2021/12/05 16:20:11;;;;;;;16.50;11.48;;;;;;;-145.42;47.54;46243.44;5014272;28;20044;-42
2021/12/05 16:23:15;;;;;;;15.27;11.15;;;;;;;-145.42;47.27;46251.19;4999714;28;20124;-38
2021/12/05 16:25:57;;;;;;;15.30;10.93;;;;;;;-145.42;47.22;46231.84;4997152;28;20440;-39
2021/12/05 16:28:28;;;;;;;17.70;11.82;;;;;;;-145.42;47.33;46251.19;5005532;28;20308;-37
2021/12/05 16:31:22;;;;;;;17.17;10.00;;;;;;;-145.42;47.69;46278.25;5006485;28;20108;-41
2021/12/05 16:33:55;;;;;;;14.43;10.57;;;;;;;-145.42;47.41;46206.72;4993450;28;20128;-40
2021/12/05 16:36:21;;;;;;;18.23;11.45;;;;;;;-145.42;47.54;46241.50;4999329;28;20054;-52
2021/12/05 16:38:52;;;;;;;14.85;10.90;;;;;;;-145.42;47.52;46235.72;5000445;28;20449;-45
2021/12/05 16:41:24;;;;;;;14.88;10.88;;;;;;;-145.42;47.31;46231.84;4995584;28;20044;-44
2021/12/05 16:44:04;;;;;;;15.02;10.77;;;;;;;-145.42;47.13;46218.31;4995995;28;20129;-41
2021/12/05 16:46:37;;;;;;;14.75;9.95;;;;;;;-145.42;47.17;46251.19;5007297;28;20121;-44
2021/12/05 16:49:06;;;;;;;16.70;10.38;;;;;;;-145.42;47.13;46258.91;5000975;28;20145;-41
2021/12/05 16:51:52;;;;;;;18.50;10.43;;;;;;;-145.42;46.89;46200.91;4997027;28;20069;-44
2021/12/05 16:54:31;;;;;;;13.00;9.98;;;;;;;-145.42;46.82;46235.72;4998588;28;20060;-44
2021/12/05 16:57:01;;;;;;;17.00;10.40;;;;;;;-145.42;46.89;46247.31;5000702;28;20037;-51
2021/12/05 16:59:41;;;;;;;11.55;10.05;;;;;;;-145.42;46.92;46258.91;4995030;28;20074;-44
2021/12/05 17:02:27;;;;;;;14.02;10.07;;;;;;;-145.42;47.06;46262.78;4997191;28;20107;-43
2021/12/05 17:05:06;;;;;;;;;;;;;;;-145.42;46.87;46233.78;4996186;28;20035;-44
2021/12/05 17:07:44;;;;;;;13.60;9.65;;;;;;;-145.42;46.95;46195.09;4999019;28;19937;-38
2021/12/05 17:10:25;;;;;;;11.80;9.73;;;;;;;-145.42;47.22;46256.97;5005299;28;20052;-48
2021/12/05 17:12:57;;;;;;;13.73;9.52;;;;;;;-145.42;47.19;46268.56;4993948;28;20531;-43
2021/12/05 17:15:31;;;;;;;13.93;10.02;;;;;;;-145.42;47.33;46241.50;4997136;28;20050;-48
2021/12/05 17:18:03;;;;;;;12.75;9.65;;;;;;;-145.42;47.33;46260.84;4997917;28;20076;-38
2021/12/05 17:20:43;;;;;;;13.93;10.00;;;;;;;-145.42;47.14;46260.84;5002321;28;20049;-40
2021/12/05 17:23:25;;;;;;;12.85;9.88;;;;;;;-145.42;47.26;46253.09;4999988;28;20117;-38